Newville, PA (17241)

11:48 AM EDT on August 22, 2014 (GMT -0400)
Upper Mifflin Township | Change Station
CLOSE
Current Station
Personal Weather Station
Location: Newville, PA
Elevation: 659 ft
Nearby Weather Stations

Elev 659 ft 40.21 °N, 77.49 °W | Updated 6 seconds ago

Overcast
Overcast
79.9 °F
Feels Like 87 °F
N
0.0
Wind Variable Wind from SE
Gusts 3.1 mph

Today
High -- | Low -- °F
--% Chance of Precip.
Yesterday
High -- | Low -- °F
Precip. -- in
6:27 AM 7:56 PM
Waning Crescent, 8% visible
Pressure 30.02 in
Visibility 4.0 miles
Clouds Mostly Cloudy 800 ft
Overcast 1400 ft
Heat Index 87 °F
Dew Point 80 °F
Humidity 99%
Rainfall 0.00 in
Snow Depth Not available.
UV 0.0 out of 12
Pollen 8.40 out of 12
Ozone Good
PM2.5 Moderate
Flu Activity Not available.
METAR KCXY 221456Z COR 09003KT 4SM BR BKN008 OVC014 22/20 A3002 RMK AO2 SLP165 T02220200 50003

More Conditions Fewer Conditions

Pressure 30.02 in
Visibility 4.0 miles
Clouds Mostly Cloudy 800 ft
Overcast 1400 ft
Heat Index 87 °F
Dew Point 80 °F
Humidity 99%
Rainfall 0.00 in
Snow Depth Not available.
UV 0.0 out of 12
Pollen 8.40 out of 12
Ozone Good
PM2.5 Moderate
Flu Activity Not available.
METAR KCXY 221456Z COR 09003KT 4SM BR BKN008 OVC014 22/20 A3002 RMK AO2 SLP165 T02220200 50003

More Conditions Fewer Conditions

Nowcast | as of 11:09 am EDT on August 22, 2014

Scattered showers will develop and become more numerous through early afternoon...with a few thunderstorms expected to develop as well by 1 PM.

×

10-Day Weather Forecast

Almanac

Astronomy

Aug. 22, 2014 Rise Set
Actual Time 6:27 AM EDT 7:56 PM EDT
Civil Twilight 5:59 AM EDT 8:24 PM EDT
Nautical Twilight 5:24 AM EDT 8:59 PM EDT
Astronomical Twilight 4:48 AM EDT 9:35 PM EDT
Moon 3:48 AM EDT 6:03 PM EDT
Length of Visible Light 14h 25m
Length of Day
13h 28m
Tomorrow will be 2m 25s shorter.
Waning Crescent, 8% of the Moon is Illuminated
Today
Waning Crescent
Aug 25
New
Sep 2
First Quarter
Sep 8
Full
Sep 15
Last Quarter

Today's Extremes

State Highs State Lows

Community

WunderPhotos

Upload Photos

1,746,188 photos uploaded!

Nearby

Air Quality

  Air Quality AQ Index Pollutant
Yesterday Moderate
PM2.5
Yesterday Good
OZONE
Current Moderate
PM2.5
Current Good
OZONE
Friday Moderate
PM2.5
Friday Moderate
OZONE
Saturday Good
PM2.5
Saturday Good
OZONE

Snow Depth

Station Depth Elevation
No new snow has been reported.

Earthquake Activity

City Distance Mag. Time & Date
No recent earthquake activity has been reported nearby.
Minimum magnitude displayed is 2.5.

Coastal Water Temperatures

Place Temperature
No Stations Reporting

Nearby Weather Stations